Terminal Aerodrome Forecast
Issued by NWS Portland, OR

Home | Current Version | Previous Version | Text Only | Print | Product List | Glossary On
Versions: 1 2 3 4 5 6 7 8 9 10 11 12 13 14 15 16 17 18 19 20 21 22 23 24 25 26 27 28 29 30 31 32 33 34 35 36
355
FTUS46 KPQR 071138
TAFSLE
TAF
KSLE 071138Z 0712/0812 VRB02KT P6SM OVC015
     FM071700 02004KT P6SM SCT020 BKN100
     FM072300 36006KT P6SM SCT120
     FM080900 34003KT 4SM BR SCT120=

USA.gov is the U.S. government's official web portal to all federal, state and local government web resources and services.